METAR Data
IDs: Format: Raw Decoded Include TAF

Data at: 1308 UTC 19 Feb 2020

METAR for:KEIK (Erie Muni, CO, US)
Text:KEIK 191300Z AUTO 00000KT 10SM OVC017 M07/M10 A3024 RMK AO2 T10671098
Temperature: -6.7°C ( 20°F)
Dewpoint: -9.8°C ( 14°F) [RH = 79%]
Pressure (altimeter):30.24 inches Hg (1024.1 mb)
Winds:calm
Visibility:10 or more sm (16+ km)
Ceiling:1700 feet AGL
Clouds: overcast cloud deck at 1700 feet AGL
QC Flag:automated observation with no human augmentation